sensor_id;sensor_type;location;lat;lon;timestamp;P1;durP1;ratioP1;P2;durP2;ratioP2
10554;SDS011;5326;51.522;7.388;2023-02-11T00:00:17;41.33;;;25.27;;
10554;SDS011;5326;51.522;7.388;2023-02-11T00:02:44;42.03;;;25.23;;
10554;SDS011;5326;51.522;7.388;2023-02-11T00:05:13;40.47;;;24.90;;
10554;SDS011;5326;51.522;7.388;2023-02-11T00:07:40;38.47;;;24.07;;
10554;SDS011;5326;51.522;7.388;2023-02-11T00:10:06;39.77;;;24.23;;
10554;SDS011;5326;51.522;7.388;2023-02-11T00:12:34;36.47;;;23.87;;
10554;SDS011;5326;51.522;7.388;2023-02-11T00:15:01;42.53;;;24.33;;
10554;SDS011;5326;51.522;7.388;2023-02-11T00:17:28;40.40;;;23.87;;
10554;SDS011;5326;51.522;7.388;2023-02-11T00:19:55;38.80;;;23.80;;
10554;SDS011;5326;51.522;7.388;2023-02-11T00:22:21;42.27;;;24.27;;
10554;SDS011;5326;51.522;7.388;2023-02-11T00:24:48;42.33;;;24.40;;
10554;SDS011;5326;51.522;7.388;2023-02-11T00:27:15;42.43;;;24.90;;
10554;SDS011;5326;51.522;7.388;2023-02-11T00:29:41;42.97;;;23.73;;
10554;SDS011;5326;51.522;7.388;2023-02-11T00:32:08;41.00;;;24.53;;
10554;SDS011;5326;51.522;7.388;2023-02-11T00:34:35;39.87;;;23.80;;
10554;SDS011;5326;51.522;7.388;2023-02-11T00:37:03;34.73;;;22.77;;
10554;SDS011;5326;51.522;7.388;2023-02-11T00:39:30;40.30;;;23.77;;
10554;SDS011;5326;51.522;7.388;2023-02-11T00:41:57;46.07;;;25.57;;
10554;SDS011;5326;51.522;7.388;2023-02-11T00:44:23;40.00;;;24.53;;
10554;SDS011;5326;51.522;7.388;2023-02-11T00:46:50;37.17;;;23.87;;
10554;SDS011;5326;51.522;7.388;2023-02-11T00:49:16;40.03;;;23.90;;
10554;SDS011;5326;51.522;7.388;2023-02-11T00:51:43;38.47;;;24.63;;
10554;SDS011;5326;51.522;7.388;2023-02-11T00:54:10;36.03;;;22.83;;
10554;SDS011;5326;51.522;7.388;2023-02-11T00:56:37;36.50;;;23.00;;
10554;SDS011;5326;51.522;7.388;2023-02-11T00:59:03;35.27;;;22.67;;
10554;SDS011;5326;51.522;7.388;2023-02-11T01:01:30;35.37;;;22.80;;
10554;SDS011;5326;51.522;7.388;2023-02-11T01:03:57;35.63;;;22.97;;
10554;SDS011;5326;51.522;7.388;2023-02-11T01:06:23;37.40;;;23.33;;
10554;SDS011;5326;51.522;7.388;2023-02-11T01:08:50;33.57;;;22.47;;
10554;SDS011;5326;51.522;7.388;2023-02-11T01:11:18;34.90;;;22.70;;
10554;SDS011;5326;51.522;7.388;2023-02-11T01:13:46;37.27;;;23.43;;
10554;SDS011;5326;51.522;7.388;2023-02-11T01:16:14;33.97;;;22.37;;
10554;SDS011;5326;51.522;7.388;2023-02-11T01:18:41;33.60;;;21.13;;
10554;SDS011;5326;51.522;7.388;2023-02-11T01:21:09;31.80;;;21.30;;
10554;SDS011;5326;51.522;7.388;2023-02-11T01:23:36;35.13;;;21.17;;
10554;SDS011;5326;51.522;7.388;2023-02-11T01:26:03;35.10;;;23.07;;
10554;SDS011;5326;51.522;7.388;2023-02-11T01:28:29;30.90;;;20.70;;
10554;SDS011;5326;51.522;7.388;2023-02-11T01:30:56;34.93;;;21.03;;
10554;SDS011;5326;51.522;7.388;2023-02-11T01:33:23;33.77;;;21.20;;
10554;SDS011;5326;51.522;7.388;2023-02-11T01:35:50;27.63;;;20.37;;
10554;SDS011;5326;51.522;7.388;2023-02-11T01:38:19;33.67;;;21.87;;
10554;SDS011;5326;51.522;7.388;2023-02-11T01:40:48;36.00;;;22.00;;
10554;SDS011;5326;51.522;7.388;2023-02-11T01:43:23;29.63;;;20.30;;
10554;SDS011;5326;51.522;7.388;2023-02-11T01:48:59;34.97;;;21.20;;
10554;SDS011;5326;51.522;7.388;2023-02-11T01:51:36;30.83;;;20.30;;
10554;SDS011;5326;51.522;7.388;2023-02-11T01:54:06;36.73;;;21.97;;
10554;SDS011;5326;51.522;7.388;2023-02-11T01:56:55;34.73;;;20.83;;
10554;SDS011;5326;51.522;7.388;2023-02-11T02:05:37;32.93;;;20.60;;
10554;SDS011;5326;51.522;7.388;2023-02-11T02:08:07;37.20;;;21.03;;
10554;SDS011;5326;51.522;7.388;2023-02-11T02:10:36;32.47;;;18.87;;
10554;SDS011;5326;51.522;7.388;2023-02-11T02:13:06;32.13;;;20.37;;
10554;SDS011;5326;51.522;7.388;2023-02-11T02:15:34;31.90;;;19.77;;
10554;SDS011;5326;51.522;7.388;2023-02-11T02:38:00;26.87;;;19.17;;
10554;SDS011;5326;51.522;7.388;2023-02-11T02:40:22;28.70;;;18.50;;
10554;SDS011;5326;51.522;7.388;2023-02-11T02:42:50;29.90;;;19.20;;
10554;SDS011;5326;51.522;7.388;2023-02-11T02:45:18;32.27;;;19.23;;
10554;SDS011;5326;51.522;7.388;2023-02-11T02:47:44;31.47;;;18.87;;
10554;SDS011;5326;51.522;7.388;2023-02-11T02:50:11;31.53;;;19.03;;
10554;SDS011;5326;51.522;7.388;2023-02-11T02:55:31;31.83;;;19.77;;
10554;SDS011;5326;51.522;7.388;2023-02-11T02:58:07;31.20;;;20.27;;
10554;SDS011;5326;51.522;7.388;2023-02-11T03:00:40;29.60;;;19.00;;
10554;SDS011;5326;51.522;7.388;2023-02-11T03:05:44;30.87;;;19.47;;
10554;SDS011;5326;51.522;7.388;2023-02-11T03:08:23;32.77;;;20.23;;
10554;SDS011;5326;51.522;7.388;2023-02-11T03:10:53;36.60;;;20.20;;
10554;SDS011;5326;51.522;7.388;2023-02-11T03:13:21;30.00;;;20.73;;
10554;SDS011;5326;51.522;7.388;2023-02-11T03:15:52;39.13;;;21.60;;
10554;SDS011;5326;51.522;7.388;2023-02-11T03:18:21;34.13;;;21.07;;
10554;SDS011;5326;51.522;7.388;2023-02-11T03:20:50;37.23;;;20.80;;
10554;SDS011;5326;51.522;7.388;2023-02-11T03:23:33;37.70;;;21.93;;
10554;SDS011;5326;51.522;7.388;2023-02-11T03:34:23;39.20;;;22.63;;
10554;SDS011;5326;51.522;7.388;2023-02-11T03:37:04;42.87;;;23.03;;
10554;SDS011;5326;51.522;7.388;2023-02-11T03:39:37;38.43;;;22.57;;
10554;SDS011;5326;51.522;7.388;2023-02-11T03:42:05;36.53;;;22.67;;
10554;SDS011;5326;51.522;7.388;2023-02-11T03:44:36;32.20;;;23.20;;
10554;SDS011;5326;51.522;7.388;2023-02-11T03:47:07;36.53;;;21.90;;
10554;SDS011;5326;51.522;7.388;2023-02-11T03:49:34;30.47;;;21.40;;
10554;SDS011;5326;51.522;7.388;2023-02-11T03:52:03;35.47;;;21.10;;
10554;SDS011;5326;51.522;7.388;2023-02-11T03:54:31;41.83;;;22.67;;
10554;SDS011;5326;51.522;7.388;2023-02-11T03:56:58;39.47;;;22.17;;
10554;SDS011;5326;51.522;7.388;2023-02-11T03:59:26;32.17;;;20.90;;
10554;SDS011;5326;51.522;7.388;2023-02-11T04:01:54;37.17;;;21.87;;
10554;SDS011;5326;51.522;7.388;2023-02-11T04:04:21;34.43;;;21.83;;
10554;SDS011;5326;51.522;7.388;2023-02-11T04:06:48;39.93;;;21.73;;
10554;SDS011;5326;51.522;7.388;2023-02-11T04:09:14;40.37;;;21.83;;
10554;SDS011;5326;51.522;7.388;2023-02-11T04:11:41;37.37;;;22.27;;
10554;SDS011;5326;51.522;7.388;2023-02-11T04:14:08;39.97;;;24.23;;
10554;SDS011;5326;51.522;7.388;2023-02-11T04:16:34;35.13;;;21.93;;
10554;SDS011;5326;51.522;7.388;2023-02-11T04:19:01;38.97;;;22.50;;
10554;SDS011;5326;51.522;7.388;2023-02-11T04:21:27;43.03;;;23.23;;
10554;SDS011;5326;51.522;7.388;2023-02-11T04:23:56;39.50;;;22.43;;
10554;SDS011;5326;51.522;7.388;2023-02-11T04:26:23;39.17;;;23.97;;
10554;SDS011;5326;51.522;7.388;2023-02-11T04:28:49;37.90;;;23.20;;
10554;SDS011;5326;51.522;7.388;2023-02-11T04:31:16;40.83;;;25.03;;
10554;SDS011;5326;51.522;7.388;2023-02-11T04:33:43;40.90;;;24.63;;
10554;SDS011;5326;51.522;7.388;2023-02-11T04:36:09;41.90;;;25.23;;
10554;SDS011;5326;51.522;7.388;2023-02-11T04:38:36;40.87;;;25.43;;
10554;SDS011;5326;51.522;7.388;2023-02-11T04:41:02;39.70;;;25.67;;
10554;SDS011;5326;51.522;7.388;2023-02-11T04:43:29;42.13;;;24.80;;
10554;SDS011;5326;51.522;7.388;2023-02-11T04:45:56;44.50;;;25.43;;
10554;SDS011;5326;51.522;7.388;2023-02-11T04:48:24;35.43;;;24.10;;
10554;SDS011;5326;51.522;7.388;2023-02-11T04:50:51;37.20;;;23.43;;
10554;SDS011;5326;51.522;7.388;2023-02-11T04:53:17;40.10;;;24.13;;
10554;SDS011;5326;51.522;7.388;2023-02-11T04:55:44;40.33;;;24.23;;
10554;SDS011;5326;51.522;7.388;2023-02-11T04:58:15;37.70;;;25.00;;
10554;SDS011;5326;51.522;7.388;2023-02-11T05:00:42;42.83;;;23.33;;
10554;SDS011;5326;51.522;7.388;2023-02-11T05:03:09;39.00;;;23.93;;
10554;SDS011;5326;51.522;7.388;2023-02-11T05:05:39;41.37;;;25.57;;
10554;SDS011;5326;51.522;7.388;2023-02-11T05:08:09;37.83;;;25.30;;
10554;SDS011;5326;51.522;7.388;2023-02-11T05:10:37;43.10;;;25.50;;
10554;SDS011;5326;51.522;7.388;2023-02-11T05:13:04;36.03;;;25.43;;
10554;SDS011;5326;51.522;7.388;2023-02-11T05:15:30;38.80;;;24.80;;
10554;SDS011;5326;51.522;7.388;2023-02-11T05:17:57;42.23;;;26.40;;
10554;SDS011;5326;51.522;7.388;2023-02-11T05:20:23;46.83;;;25.73;;
10554;SDS011;5326;51.522;7.388;2023-02-11T05:22:50;44.30;;;26.67;;
10554;SDS011;5326;51.522;7.388;2023-02-11T05:25:17;42.13;;;26.77;;
10554;SDS011;5326;51.522;7.388;2023-02-11T05:27:43;46.23;;;27.23;;
10554;SDS011;5326;51.522;7.388;2023-02-11T05:30:10;48.03;;;26.67;;
10554;SDS011;5326;51.522;7.388;2023-02-11T05:32:37;46.73;;;26.53;;
10554;SDS011;5326;51.522;7.388;2023-02-11T05:35:04;45.17;;;26.53;;
10554;SDS011;5326;51.522;7.388;2023-02-11T05:37:30;48.27;;;27.50;;
10554;SDS011;5326;51.522;7.388;2023-02-11T05:39:57;41.73;;;25.97;;
10554;SDS011;5326;51.522;7.388;2023-02-11T05:42:24;45.27;;;27.23;;
10554;SDS011;5326;51.522;7.388;2023-02-11T05:44:50;44.53;;;27.13;;
10554;SDS011;5326;51.522;7.388;2023-02-11T05:47:17;45.63;;;27.90;;
10554;SDS011;5326;51.522;7.388;2023-02-11T05:49:43;43.87;;;28.17;;
10554;SDS011;5326;51.522;7.388;2023-02-11T05:52:10;42.90;;;27.47;;
10554;SDS011;5326;51.522;7.388;2023-02-11T05:54:36;42.87;;;27.57;;
10554;SDS011;5326;51.522;7.388;2023-02-11T05:57:03;43.47;;;26.97;;
10554;SDS011;5326;51.522;7.388;2023-02-11T05:59:30;41.77;;;25.00;;
10554;SDS011;5326;51.522;7.388;2023-02-11T06:01:56;39.17;;;26.13;;
10554;SDS011;5326;51.522;7.388;2023-02-11T06:04:23;43.03;;;25.80;;
10554;SDS011;5326;51.522;7.388;2023-02-11T06:06:49;46.43;;;27.13;;
10554;SDS011;5326;51.522;7.388;2023-02-11T06:09:16;42.60;;;26.60;;
10554;SDS011;5326;51.522;7.388;2023-02-11T06:11:42;47.63;;;28.47;;
10554;SDS011;5326;51.522;7.388;2023-02-11T06:14:09;46.80;;;26.73;;
10554;SDS011;5326;51.522;7.388;2023-02-11T06:16:36;41.17;;;27.57;;
10554;SDS011;5326;51.522;7.388;2023-02-11T06:19:03;40.30;;;27.03;;
10554;SDS011;5326;51.522;7.388;2023-02-11T06:21:29;46.97;;;27.13;;
10554;SDS011;5326;51.522;7.388;2023-02-11T06:24:08;50.20;;;28.90;;
10554;SDS011;5326;51.522;7.388;2023-02-11T06:26:35;42.27;;;26.80;;
10554;SDS011;5326;51.522;7.388;2023-02-11T06:29:01;46.87;;;27.67;;
10554;SDS011;5326;51.522;7.388;2023-02-11T06:31:28;50.07;;;30.07;;
10554;SDS011;5326;51.522;7.388;2023-02-11T06:33:55;45.70;;;28.77;;
10554;SDS011;5326;51.522;7.388;2023-02-11T06:36:21;46.37;;;29.03;;
10554;SDS011;5326;51.522;7.388;2023-02-11T06:38:48;49.63;;;29.77;;
10554;SDS011;5326;51.522;7.388;2023-02-11T06:41:16;52.37;;;29.60;;
10554;SDS011;5326;51.522;7.388;2023-02-11T06:43:45;50.73;;;30.10;;
10554;SDS011;5326;51.522;7.388;2023-02-11T06:46:12;54.93;;;30.80;;
10554;SDS011;5326;51.522;7.388;2023-02-11T06:48:39;46.03;;;31.60;;
10554;SDS011;5326;51.522;7.388;2023-02-11T06:51:09;53.13;;;31.17;;
10554;SDS011;5326;51.522;7.388;2023-02-11T06:53:37;54.80;;;30.17;;
10554;SDS011;5326;51.522;7.388;2023-02-11T06:56:06;52.40;;;31.10;;
10554;SDS011;5326;51.522;7.388;2023-02-11T06:58:34;55.47;;;32.30;;
10554;SDS011;5326;51.522;7.388;2023-02-11T07:01:05;53.67;;;32.13;;
10554;SDS011;5326;51.522;7.388;2023-02-11T07:03:33;54.47;;;31.97;;
10554;SDS011;5326;51.522;7.388;2023-02-11T07:06:01;59.67;;;32.53;;
10554;SDS011;5326;51.522;7.388;2023-02-11T07:08:30;53.53;;;31.63;;
10554;SDS011;5326;51.522;7.388;2023-02-11T07:10:58;53.10;;;30.40;;
10554;SDS011;5326;51.522;7.388;2023-02-11T07:13:24;50.37;;;31.47;;
10554;SDS011;5326;51.522;7.388;2023-02-11T07:15:51;56.90;;;31.77;;
10554;SDS011;5326;51.522;7.388;2023-02-11T07:18:18;61.90;;;32.43;;
10554;SDS011;5326;51.522;7.388;2023-02-11T07:20:45;60.93;;;32.67;;
10554;SDS011;5326;51.522;7.388;2023-02-11T07:23:11;59.03;;;32.60;;
10554;SDS011;5326;51.522;7.388;2023-02-11T07:25:38;58.53;;;33.17;;
10554;SDS011;5326;51.522;7.388;2023-02-11T07:28:04;66.00;;;33.57;;
10554;SDS011;5326;51.522;7.388;2023-02-11T07:30:31;68.20;;;34.93;;
10554;SDS011;5326;51.522;7.388;2023-02-11T07:32:58;59.40;;;33.90;;
10554;SDS011;5326;51.522;7.388;2023-02-11T07:35:24;66.53;;;34.77;;
10554;SDS011;5326;51.522;7.388;2023-02-11T07:37:51;62.37;;;34.03;;
10554;SDS011;5326;51.522;7.388;2023-02-11T07:40:17;65.73;;;35.60;;
10554;SDS011;5326;51.522;7.388;2023-02-11T07:42:44;68.40;;;34.77;;
10554;SDS011;5326;51.522;7.388;2023-02-11T07:45:10;61.77;;;34.80;;
10554;SDS011;5326;51.522;7.388;2023-02-11T07:47:39;70.43;;;37.23;;
10554;SDS011;5326;51.522;7.388;2023-02-11T07:50:08;65.13;;;34.93;;
10554;SDS011;5326;51.522;7.388;2023-02-11T07:52:35;62.33;;;34.83;;
10554;SDS011;5326;51.522;7.388;2023-02-11T07:55:02;72.27;;;34.37;;
10554;SDS011;5326;51.522;7.388;2023-02-11T07:57:30;76.83;;;36.10;;
10554;SDS011;5326;51.522;7.388;2023-02-11T07:59:56;74.90;;;35.23;;
10554;SDS011;5326;51.522;7.388;2023-02-11T08:02:23;68.87;;;35.50;;
10554;SDS011;5326;51.522;7.388;2023-02-11T08:04:49;63.53;;;34.97;;
10554;SDS011;5326;51.522;7.388;2023-02-11T08:07:16;65.03;;;33.57;;
10554;SDS011;5326;51.522;7.388;2023-02-11T08:09:43;75.17;;;36.20;;
10554;SDS011;5326;51.522;7.388;2023-02-11T08:12:11;67.13;;;35.00;;
10554;SDS011;5326;51.522;7.388;2023-02-11T08:14:38;72.23;;;36.20;;
10554;SDS011;5326;51.522;7.388;2023-02-11T08:17:05;64.93;;;35.87;;
10554;SDS011;5326;51.522;7.388;2023-02-11T08:19:34;75.03;;;37.97;;
10554;SDS011;5326;51.522;7.388;2023-02-11T08:22:04;80.90;;;37.77;;
10554;SDS011;5326;51.522;7.388;2023-02-11T08:24:30;75.87;;;37.20;;
10554;SDS011;5326;51.522;7.388;2023-02-11T08:26:57;71.67;;;36.53;;
10554;SDS011;5326;51.522;7.388;2023-02-11T08:29:23;73.00;;;36.83;;
10554;SDS011;5326;51.522;7.388;2023-02-11T08:31:50;73.77;;;37.23;;
10554;SDS011;5326;51.522;7.388;2023-02-11T08:34:17;80.73;;;36.77;;
10554;SDS011;5326;51.522;7.388;2023-02-11T08:36:44;76.23;;;35.87;;
10554;SDS011;5326;51.522;7.388;2023-02-11T08:39:18;82.33;;;37.67;;
10554;SDS011;5326;51.522;7.388;2023-02-11T08:41:47;77.23;;;38.00;;
10554;SDS011;5326;51.522;7.388;2023-02-11T08:44:16;76.77;;;37.80;;
10554;SDS011;5326;51.522;7.388;2023-02-11T08:46:43;77.63;;;39.00;;
10554;SDS011;5326;51.522;7.388;2023-02-11T08:49:10;82.17;;;39.33;;
10554;SDS011;5326;51.522;7.388;2023-02-11T08:51:36;68.37;;;37.67;;
10554;SDS011;5326;51.522;7.388;2023-02-11T08:54:03;76.17;;;38.00;;
10554;SDS011;5326;51.522;7.388;2023-02-11T08:56:31;70.60;;;36.50;;
10554;SDS011;5326;51.522;7.388;2023-02-11T08:58:58;70.27;;;37.77;;
10554;SDS011;5326;51.522;7.388;2023-02-11T09:01:26;85.07;;;37.83;;
10554;SDS011;5326;51.522;7.388;2023-02-11T09:03:56;73.50;;;37.67;;
10554;SDS011;5326;51.522;7.388;2023-02-11T09:06:24;70.10;;;36.67;;
10554;SDS011;5326;51.522;7.388;2023-02-11T09:08:52;88.60;;;39.27;;
10554;SDS011;5326;51.522;7.388;2023-02-11T09:11:21;69.50;;;38.27;;
10554;SDS011;5326;51.522;7.388;2023-02-11T09:13:51;79.70;;;38.03;;
10554;SDS011;5326;51.522;7.388;2023-02-11T09:16:23;72.27;;;38.50;;
10554;SDS011;5326;51.522;7.388;2023-02-11T09:18:52;81.17;;;39.03;;
10554;SDS011;5326;51.522;7.388;2023-02-11T09:21:19;78.60;;;37.53;;
10554;SDS011;5326;51.522;7.388;2023-02-11T09:23:46;75.97;;;38.37;;
10554;SDS011;5326;51.522;7.388;2023-02-11T09:28:41;76.60;;;39.00;;
10554;SDS011;5326;51.522;7.388;2023-02-11T09:31:08;75.90;;;38.37;;
10554;SDS011;5326;51.522;7.388;2023-02-11T09:33:37;73.57;;;37.07;;
10554;SDS011;5326;51.522;7.388;2023-02-11T09:36:04;80.50;;;38.20;;
10554;SDS011;5326;51.522;7.388;2023-02-11T09:38:31;83.47;;;39.30;;
10554;SDS011;5326;51.522;7.388;2023-02-11T09:40:58;77.47;;;39.20;;
10554;SDS011;5326;51.522;7.388;2023-02-11T09:43:46;79.83;;;38.80;;
10554;SDS011;5326;51.522;7.388;2023-02-11T09:46:14;76.23;;;37.93;;
10554;SDS011;5326;51.522;7.388;2023-02-11T09:48:42;72.50;;;37.60;;
10554;SDS011;5326;51.522;7.388;2023-02-11T09:51:18;78.63;;;38.80;;
10554;SDS011;5326;51.522;7.388;2023-02-11T09:53:50;77.00;;;38.03;;
10554;SDS011;5326;51.522;7.388;2023-02-11T09:56:23;75.40;;;38.00;;
10554;SDS011;5326;51.522;7.388;2023-02-11T09:58:50;81.37;;;39.17;;
10554;SDS011;5326;51.522;7.388;2023-02-11T10:04:18;65.70;;;30.13;;
10554;SDS011;5326;51.522;7.388;2023-02-11T10:07:01;58.63;;;30.80;;
10554;SDS011;5326;51.522;7.388;2023-02-11T10:17:36;52.47;;;29.03;;
10554;SDS011;5326;51.522;7.388;2023-02-11T10:25:25;64.07;;;34.57;;
10554;SDS011;5326;51.522;7.388;2023-02-11T10:27:56;68.50;;;35.67;;
10554;SDS011;5326;51.522;7.388;2023-02-11T10:30:29;67.70;;;37.17;;
10554;SDS011;5326;51.522;7.388;2023-02-11T10:35:49;73.37;;;36.40;;
10554;SDS011;5326;51.522;7.388;2023-02-11T10:38:15;73.77;;;38.40;;
10554;SDS011;5326;51.522;7.388;2023-02-11T10:40:42;74.87;;;39.07;;
10554;SDS011;5326;51.522;7.388;2023-02-11T10:43:12;84.50;;;39.37;;
10554;SDS011;5326;51.522;7.388;2023-02-11T10:45:42;76.80;;;39.93;;
10554;SDS011;5326;51.522;7.388;2023-02-11T10:53:39;76.60;;;39.93;;
10554;SDS011;5326;51.522;7.388;2023-02-11T10:56:07;81.33;;;39.23;;
10554;SDS011;5326;51.522;7.388;2023-02-11T10:58:44;83.87;;;41.23;;
10554;SDS011;5326;51.522;7.388;2023-02-11T11:01:12;82.47;;;41.00;;
10554;SDS011;5326;51.522;7.388;2023-02-11T11:03:50;88.00;;;41.27;;
10554;SDS011;5326;51.522;7.388;2023-02-11T11:06:27;81.00;;;39.83;;
10554;SDS011;5326;51.522;7.388;2023-02-11T11:08:57;83.17;;;41.23;;
10554;SDS011;5326;51.522;7.388;2023-02-11T11:11:24;75.37;;;40.03;;
10554;SDS011;5326;51.522;7.388;2023-02-11T11:16:22;77.53;;;40.93;;
10554;SDS011;5326;51.522;7.388;2023-02-11T11:21:35;82.13;;;40.23;;
10554;SDS011;5326;51.522;7.388;2023-02-11T11:24:08;80.10;;;40.47;;
10554;SDS011;5326;51.522;7.388;2023-02-11T11:27:00;87.27;;;45.27;;
10554;SDS011;5326;51.522;7.388;2023-02-11T11:32:09;84.17;;;42.80;;
10554;SDS011;5326;51.522;7.388;2023-02-11T11:34:38;78.77;;;41.60;;
10554;SDS011;5326;51.522;7.388;2023-02-11T11:37:25;89.63;;;46.13;;
10554;SDS011;5326;51.522;7.388;2023-02-11T11:42:39;84.10;;;43.70;;
10554;SDS011;5326;51.522;7.388;2023-02-11T11:47:49;81.73;;;44.80;;
10554;SDS011;5326;51.522;7.388;2023-02-11T11:58:19;96.23;;;46.47;;
10554;SDS011;5326;51.522;7.388;2023-02-11T12:09:31;102.80;;;46.73;;
10554;SDS011;5326;51.522;7.388;2023-02-11T12:17:27;86.23;;;45.83;;
10554;SDS011;5326;51.522;7.388;2023-02-11T12:37:24;96.70;;;48.93;;
10554;SDS011;5326;51.522;7.388;2023-02-11T12:40:15;94.10;;;48.33;;
10554;SDS011;5326;51.522;7.388;2023-02-11T12:43:05;92.17;;;48.60;;
10554;SDS011;5326;51.522;7.388;2023-02-11T12:54:11;101.40;;;50.93;;
10554;SDS011;5326;51.522;7.388;2023-02-11T12:56:39;93.63;;;50.57;;
10554;SDS011;5326;51.522;7.388;2023-02-11T12:59:18;100.20;;;52.87;;
10554;SDS011;5326;51.522;7.388;2023-02-11T13:01:51;102.70;;;52.77;;
10554;SDS011;5326;51.522;7.388;2023-02-11T13:04:20;100.70;;;51.80;;
10554;SDS011;5326;51.522;7.388;2023-02-11T13:06:53;98.97;;;52.57;;
10554;SDS011;5326;51.522;7.388;2023-02-11T13:09:25;112.43;;;54.53;;
10554;SDS011;5326;51.522;7.388;2023-02-11T13:12:02;107.97;;;52.60;;
10554;SDS011;5326;51.522;7.388;2023-02-11T13:14:48;109.07;;;57.53;;
10554;SDS011;5326;51.522;7.388;2023-02-11T13:17:21;101.93;;;51.67;;
10554;SDS011;5326;51.522;7.388;2023-02-11T13:19:54;101.73;;;52.10;;
10554;SDS011;5326;51.522;7.388;2023-02-11T13:25:04;97.60;;;51.07;;
10554;SDS011;5326;51.522;7.388;2023-02-11T13:43:41;95.73;;;51.33;;
10554;SDS011;5326;51.522;7.388;2023-02-11T13:46:09;98.17;;;50.43;;
10554;SDS011;5326;51.522;7.388;2023-02-11T13:48:49;88.40;;;49.17;;
10554;SDS011;5326;51.522;7.388;2023-02-11T13:51:32;94.03;;;51.63;;
10554;SDS011;5326;51.522;7.388;2023-02-11T13:54:01;95.63;;;51.07;;
10554;SDS011;5326;51.522;7.388;2023-02-11T13:56:38;98.90;;;52.43;;
10554;SDS011;5326;51.522;7.388;2023-02-11T14:10:54;95.63;;;49.37;;
10554;SDS011;5326;51.522;7.388;2023-02-11T14:13:34;88.63;;;50.07;;
10554;SDS011;5326;51.522;7.388;2023-02-11T14:16:06;96.87;;;51.03;;
10554;SDS011;5326;51.522;7.388;2023-02-11T14:23:48;92.43;;;49.47;;
10554;SDS011;5326;51.522;7.388;2023-02-11T14:29:29;95.30;;;53.70;;
10554;SDS011;5326;51.522;7.388;2023-02-11T14:34:25;76.43;;;46.83;;
10554;SDS011;5326;51.522;7.388;2023-02-11T14:42:21;71.10;;;41.53;;
10554;SDS011;5326;51.522;7.388;2023-02-11T14:44:52;72.57;;;41.50;;
10554;SDS011;5326;51.522;7.388;2023-02-11T14:47:28;65.43;;;39.33;;
10554;SDS011;5326;51.522;7.388;2023-02-11T14:50:00;64.53;;;40.83;;
10554;SDS011;5326;51.522;7.388;2023-02-11T14:52:28;71.33;;;40.97;;
10554;SDS011;5326;51.522;7.388;2023-02-11T15:05:57;57.50;;;36.87;;
10554;SDS011;5326;51.522;7.388;2023-02-11T15:08:41;68.37;;;43.83;;
10554;SDS011;5326;51.522;7.388;2023-02-11T15:11:11;59.20;;;34.53;;
10554;SDS011;5326;51.522;7.388;2023-02-11T15:13:39;53.10;;;33.93;;
10554;SDS011;5326;51.522;7.388;2023-02-11T15:16:15;61.17;;;35.23;;
10554;SDS011;5326;51.522;7.388;2023-02-11T15:18:49;47.57;;;31.83;;
10554;SDS011;5326;51.522;7.388;2023-02-11T15:21:27;48.63;;;31.57;;
10554;SDS011;5326;51.522;7.388;2023-02-11T15:23:56;48.90;;;31.37;;
10554;SDS011;5326;51.522;7.388;2023-02-11T15:26:43;50.83;;;31.97;;
10554;SDS011;5326;51.522;7.388;2023-02-11T15:29:16;58.73;;;33.97;;
10554;SDS011;5326;51.522;7.388;2023-02-11T15:31:43;50.27;;;32.33;;
10554;SDS011;5326;51.522;7.388;2023-02-11T15:34:10;55.50;;;33.30;;
10554;SDS011;5326;51.522;7.388;2023-02-11T15:36:40;49.70;;;31.77;;
10554;SDS011;5326;51.522;7.388;2023-02-11T15:39:28;47.93;;;31.77;;
10554;SDS011;5326;51.522;7.388;2023-02-11T15:47:56;49.87;;;31.57;;
10554;SDS011;5326;51.522;7.388;2023-02-11T15:50:28;52.90;;;32.60;;
10554;SDS011;5326;51.522;7.388;2023-02-11T15:52:58;49.27;;;31.03;;
10554;SDS011;5326;51.522;7.388;2023-02-11T15:55:26;53.97;;;32.20;;
10554;SDS011;5326;51.522;7.388;2023-02-11T15:57:58;50.60;;;30.20;;
10554;SDS011;5326;51.522;7.388;2023-02-11T16:00:36;48.53;;;30.27;;
10554;SDS011;5326;51.522;7.388;2023-02-11T16:03:20;51.17;;;31.63;;
10554;SDS011;5326;51.522;7.388;2023-02-11T16:05:48;54.73;;;34.13;;
10554;SDS011;5326;51.522;7.388;2023-02-11T16:11:00;62.80;;;35.83;;
10554;SDS011;5326;51.522;7.388;2023-02-11T16:13:29;64.07;;;38.30;;
10554;SDS011;5326;51.522;7.388;2023-02-11T16:16:00;64.23;;;37.03;;
10554;SDS011;5326;51.522;7.388;2023-02-11T16:18:34;64.10;;;37.30;;
10554;SDS011;5326;51.522;7.388;2023-02-11T16:21:06;63.47;;;38.20;;
10554;SDS011;5326;51.522;7.388;2023-02-11T16:23:41;62.60;;;37.30;;
10554;SDS011;5326;51.522;7.388;2023-02-11T16:28:45;65.30;;;36.63;;
10554;SDS011;5326;51.522;7.388;2023-02-11T16:31:12;62.23;;;36.17;;
10554;SDS011;5326;51.522;7.388;2023-02-11T16:33:39;58.63;;;37.30;;
10554;SDS011;5326;51.522;7.388;2023-02-11T16:36:12;55.83;;;33.67;;
10554;SDS011;5326;51.522;7.388;2023-02-11T16:38:42;58.20;;;32.83;;
10554;SDS011;5326;51.522;7.388;2023-02-11T16:41:10;57.90;;;35.30;;
10554;SDS011;5326;51.522;7.388;2023-02-11T16:43:38;56.83;;;34.70;;
10554;SDS011;5326;51.522;7.388;2023-02-11T16:46:05;61.87;;;34.90;;
10554;SDS011;5326;51.522;7.388;2023-02-11T16:48:32;65.40;;;34.37;;
10554;SDS011;5326;51.522;7.388;2023-02-11T16:51:00;55.30;;;34.90;;
10554;SDS011;5326;51.522;7.388;2023-02-11T16:53:27;58.40;;;34.90;;
10554;SDS011;5326;51.522;7.388;2023-02-11T16:55:55;62.33;;;36.23;;
10554;SDS011;5326;51.522;7.388;2023-02-11T16:58:21;59.23;;;35.20;;
10554;SDS011;5326;51.522;7.388;2023-02-11T17:00:48;63.33;;;34.97;;
10554;SDS011;5326;51.522;7.388;2023-02-11T17:03:16;63.00;;;37.07;;
10554;SDS011;5326;51.522;7.388;2023-02-11T17:05:47;55.23;;;34.40;;
10554;SDS011;5326;51.522;7.388;2023-02-11T17:08:23;61.47;;;35.30;;
10554;SDS011;5326;51.522;7.388;2023-02-11T17:10:50;62.23;;;37.23;;
10554;SDS011;5326;51.522;7.388;2023-02-11T17:13:17;58.83;;;35.20;;
10554;SDS011;5326;51.522;7.388;2023-02-11T17:15:43;59.27;;;34.97;;
10554;SDS011;5326;51.522;7.388;2023-02-11T17:18:11;60.10;;;35.87;;
10554;SDS011;5326;51.522;7.388;2023-02-11T17:20:40;63.43;;;37.83;;
10554;SDS011;5326;51.522;7.388;2023-02-11T17:23:07;55.47;;;35.17;;
10554;SDS011;5326;51.522;7.388;2023-02-11T17:25:33;66.27;;;37.90;;
10554;SDS011;5326;51.522;7.388;2023-02-11T17:28:06;63.57;;;36.53;;
10554;SDS011;5326;51.522;7.388;2023-02-11T17:30:33;59.67;;;35.37;;
10554;SDS011;5326;51.522;7.388;2023-02-11T17:33:00;66.10;;;37.40;;
10554;SDS011;5326;51.522;7.388;2023-02-11T17:35:27;61.80;;;35.00;;
10554;SDS011;5326;51.522;7.388;2023-02-11T17:37:54;59.57;;;37.30;;
10554;SDS011;5326;51.522;7.388;2023-02-11T17:40:20;65.27;;;37.13;;
10554;SDS011;5326;51.522;7.388;2023-02-11T17:42:47;62.93;;;36.63;;
10554;SDS011;5326;51.522;7.388;2023-02-11T17:45:14;66.13;;;39.20;;
10554;SDS011;5326;51.522;7.388;2023-02-11T17:47:40;65.17;;;37.73;;
10554;SDS011;5326;51.522;7.388;2023-02-11T17:50:07;60.40;;;37.43;;
10554;SDS011;5326;51.522;7.388;2023-02-11T17:52:34;63.13;;;37.13;;
10554;SDS011;5326;51.522;7.388;2023-02-11T17:55:02;59.27;;;35.87;;
10554;SDS011;5326;51.522;7.388;2023-02-11T17:57:28;63.40;;;38.13;;
10554;SDS011;5326;51.522;7.388;2023-02-11T17:59:55;64.47;;;36.40;;
10554;SDS011;5326;51.522;7.388;2023-02-11T18:02:22;61.73;;;37.30;;
10554;SDS011;5326;51.522;7.388;2023-02-11T18:04:49;60.30;;;36.07;;